Terminal Aerodrome Forecast
Issued by NWS

Home | Current Version | Previous Version | Text Only | Print | Product List | Glossary On
Versions: 1 2 3 4 5 6 7 8 9 10 11 12 13 14 15 16 17 18 19 20 21 22 23 24 25 26 27 28 29 30 31 32 33 34 35 36
000
FTUS41 KOKX 220553
TAFSWF
TAF
KSWF 220553Z 2206/2312 28005KT P6SM FEW150
     FM222200 32007KT P6SM BKN100
     FM230000 35005KT P6SM VCTS SCT050CB BKN100
     FM231000 VRB03KT P6SM OVC090
      AMD NOT SKED=

USA.gov is the U.S. government's official web portal to all federal, state and local government web resources and services.